sensor_id;sensor_type;location;lat;lon;timestamp;noise_LAeq;noise_LA_min;noise_LA_max;noise_LA01;noise_LA95
49732;Laerm;43666;51.442;6.778;2024-01-07T00:00:03;36.44;26.91;39.70;;
49732;Laerm;43666;51.442;6.778;2024-01-07T00:02:29;36.43;29.92;39.70;;
49732;Laerm;43666;51.442;6.778;2024-01-07T00:04:56;36.40;30.89;39.70;;
49732;Laerm;43666;51.442;6.778;2024-01-07T00:07:23;36.49;29.57;39.81;;
49732;Laerm;43666;51.442;6.778;2024-01-07T00:09:49;36.52;29.92;39.70;;
49732;Laerm;43666;51.442;6.778;2024-01-07T00:12:14;36.52;28.67;39.70;;
49732;Laerm;43666;51.442;6.778;2024-01-07T00:14:41;36.58;29.92;40.23;;
49732;Laerm;43666;51.442;6.778;2024-01-07T00:17:06;36.48;29.92;39.81;;
49732;Laerm;43666;51.442;6.778;2024-01-07T00:19:32;36.55;26.91;40.03;;
49732;Laerm;43666;51.442;6.778;2024-01-07T00:22:00;36.49;28.67;39.68;;
49732;Laerm;43666;51.442;6.778;2024-01-07T00:24:26;36.47;29.92;39.70;;
49732;Laerm;43666;51.442;6.778;2024-01-07T00:26:54;36.47;26.91;39.70;;
49732;Laerm;43666;51.442;6.778;2024-01-07T00:29:21;36.48;29.92;39.92;;
49732;Laerm;43666;51.442;6.778;2024-01-07T00:31:46;36.50;28.67;39.46;;
49732;Laerm;43666;51.442;6.778;2024-01-07T00:34:13;36.58;28.67;39.70;;
49732;Laerm;43666;51.442;6.778;2024-01-07T00:36:38;36.55;29.92;39.70;;
49732;Laerm;43666;51.442;6.778;2024-01-07T00:39:05;36.47;26.91;39.70;;
49732;Laerm;43666;51.442;6.778;2024-01-07T00:41:30;36.51;28.67;39.46;;
49732;Laerm;43666;51.442;6.778;2024-01-07T00:43:56;36.58;28.67;39.46;;
49732;Laerm;43666;51.442;6.778;2024-01-07T00:46:22;36.51;29.92;39.81;;
49732;Laerm;43666;51.442;6.778;2024-01-07T00:48:47;36.48;28.67;39.92;;
49732;Laerm;43666;51.442;6.778;2024-01-07T00:51:14;36.46;28.67;39.81;;
49732;Laerm;43666;51.442;6.778;2024-01-07T00:53:39;36.53;26.91;40.03;;
49732;Laerm;43666;51.442;6.778;2024-01-07T00:56:07;36.53;29.92;39.81;;
49732;Laerm;43666;51.442;6.778;2024-01-07T00:58:33;36.52;29.92;39.34;;
49732;Laerm;43666;51.442;6.778;2024-01-07T01:00:58;36.41;29.92;40.03;;
49732;Laerm;43666;51.442;6.778;2024-01-07T01:03:26;36.47;23.90;39.92;;
49732;Laerm;43666;51.442;6.778;2024-01-07T01:05:53;36.48;28.67;39.58;;
49732;Laerm;43666;51.442;6.778;2024-01-07T01:08:19;36.51;30.89;39.70;;
49732;Laerm;43666;51.442;6.778;2024-01-07T01:10:45;36.54;30.54;40.13;;
49732;Laerm;43666;51.442;6.778;2024-01-07T01:13:10;36.53;29.92;40.23;;
49732;Laerm;43666;51.442;6.778;2024-01-07T01:15:38;36.58;26.91;40.23;;
49732;Laerm;43666;51.442;6.778;2024-01-07T01:18:05;36.44;29.92;40.33;;
49732;Laerm;43666;51.442;6.778;2024-01-07T01:20:30;36.46;29.92;39.70;;
49732;Laerm;43666;51.442;6.778;2024-01-07T01:22:57;36.54;30.89;40.03;;
49732;Laerm;43666;51.442;6.778;2024-01-07T01:25:23;36.47;28.67;39.34;;
49732;Laerm;43666;51.442;6.778;2024-01-07T01:27:49;36.48;29.92;39.58;;
49732;Laerm;43666;51.442;6.778;2024-01-07T01:30:15;36.55;28.67;39.81;;
49732;Laerm;43666;51.442;6.778;2024-01-07T01:32:41;36.50;28.67;39.81;;
49732;Laerm;43666;51.442;6.778;2024-01-07T01:35:07;36.45;28.67;39.58;;
49732;Laerm;43666;51.442;6.778;2024-01-07T01:37:33;36.44;26.91;39.70;;
49732;Laerm;43666;51.442;6.778;2024-01-07T01:39:59;36.42;28.32;39.58;;
49732;Laerm;43666;51.442;6.778;2024-01-07T01:42:25;36.52;28.67;39.46;;
49732;Laerm;43666;51.442;6.778;2024-01-07T01:44:51;36.46;29.92;40.33;;
49732;Laerm;43666;51.442;6.778;2024-01-07T01:47:18;36.52;26.91;39.81;;
49732;Laerm;43666;51.442;6.778;2024-01-07T01:49:48;36.49;28.67;39.58;;
49732;Laerm;43666;51.442;6.778;2024-01-07T01:52:14;36.50;26.91;39.70;;
49732;Laerm;43666;51.442;6.778;2024-01-07T01:54:40;36.52;29.57;39.81;;
49732;Laerm;43666;51.442;6.778;2024-01-07T01:57:05;36.49;28.67;39.58;;
49732;Laerm;43666;51.442;6.778;2024-01-07T01:59:33;36.57;30.89;39.92;;
49732;Laerm;43666;51.442;6.778;2024-01-07T02:02:00;36.62;29.92;40.13;;
49732;Laerm;43666;51.442;6.778;2024-01-07T02:04:27;36.41;29.92;39.46;;
49732;Laerm;43666;51.442;6.778;2024-01-07T02:06:52;36.53;23.90;39.58;;
49732;Laerm;43666;51.442;6.778;2024-01-07T02:09:18;36.46;28.67;39.92;;
49732;Laerm;43666;51.442;6.778;2024-01-07T02:11:59;36.48;28.67;39.70;;
49732;Laerm;43666;51.442;6.778;2024-01-07T02:14:25;36.51;28.67;39.70;;
49732;Laerm;43666;51.442;6.778;2024-01-07T02:16:51;36.54;29.92;39.70;;
49732;Laerm;43666;51.442;6.778;2024-01-07T02:19:17;36.53;29.92;39.58;;
49732;Laerm;43666;51.442;6.778;2024-01-07T02:21:43;36.60;29.92;40.03;;
49732;Laerm;43666;51.442;6.778;2024-01-07T02:24:14;36.64;26.91;39.70;;
49732;Laerm;43666;51.442;6.778;2024-01-07T02:26:40;36.58;26.91;39.58;;
49732;Laerm;43666;51.442;6.778;2024-01-07T02:29:06;36.62;29.92;39.81;;
49732;Laerm;43666;51.442;6.778;2024-01-07T02:31:32;36.61;28.67;39.34;;
49732;Laerm;43666;51.442;6.778;2024-01-07T02:33:57;36.56;29.92;39.81;;
49732;Laerm;43666;51.442;6.778;2024-01-07T02:36:23;36.53;30.89;39.89;;
49732;Laerm;43666;51.442;6.778;2024-01-07T02:38:49;36.53;29.92;39.81;;
49732;Laerm;43666;51.442;6.778;2024-01-07T02:41:15;36.58;29.92;39.68;;
49732;Laerm;43666;51.442;6.778;2024-01-07T02:43:40;36.56;28.67;40.13;;
49732;Laerm;43666;51.442;6.778;2024-01-07T02:46:07;36.53;30.89;40.23;;
49732;Laerm;43666;51.442;6.778;2024-01-07T02:48:33;36.51;30.89;39.58;;
49732;Laerm;43666;51.442;6.778;2024-01-07T02:50:58;36.48;28.67;39.81;;
49732;Laerm;43666;51.442;6.778;2024-01-07T02:53:24;36.49;28.67;39.70;;
49732;Laerm;43666;51.442;6.778;2024-01-07T02:55:50;36.49;26.91;39.58;;
49732;Laerm;43666;51.442;6.778;2024-01-07T02:58:15;36.53;28.67;39.81;;
49732;Laerm;43666;51.442;6.778;2024-01-07T03:00:41;36.48;26.91;39.92;;
49732;Laerm;43666;51.442;6.778;2024-01-07T03:03:07;36.48;28.67;39.92;;
49732;Laerm;43666;51.442;6.778;2024-01-07T03:05:33;36.45;29.92;39.58;;
49732;Laerm;43666;51.442;6.778;2024-01-07T03:07:59;36.50;28.67;39.58;;
49732;Laerm;43666;51.442;6.778;2024-01-07T03:10:25;36.49;28.67;39.70;;
49732;Laerm;43666;51.442;6.778;2024-01-07T03:12:51;36.56;29.92;39.81;;
49732;Laerm;43666;51.442;6.778;2024-01-07T03:15:17;36.52;28.67;39.92;;
49732;Laerm;43666;51.442;6.778;2024-01-07T03:17:43;36.50;28.67;39.58;;
49732;Laerm;43666;51.442;6.778;2024-01-07T03:20:09;36.49;28.67;39.21;;
49732;Laerm;43666;51.442;6.778;2024-01-07T03:22:35;36.52;28.67;39.70;;
49732;Laerm;43666;51.442;6.778;2024-01-07T03:25:01;36.49;28.67;39.81;;
49732;Laerm;43666;51.442;6.778;2024-01-07T03:27:26;36.47;29.92;39.92;;
49732;Laerm;43666;51.442;6.778;2024-01-07T03:29:52;36.52;30.89;40.13;;
49732;Laerm;43666;51.442;6.778;2024-01-07T03:32:18;36.57;28.67;39.78;;
49732;Laerm;43666;51.442;6.778;2024-01-07T03:34:44;36.51;30.89;39.70;;
49732;Laerm;43666;51.442;6.778;2024-01-07T03:37:09;36.52;29.92;39.70;;
49732;Laerm;43666;51.442;6.778;2024-01-07T03:39:35;36.56;30.89;39.81;;
49732;Laerm;43666;51.442;6.778;2024-01-07T03:42:01;36.50;29.92;39.58;;
49732;Laerm;43666;51.442;6.778;2024-01-07T03:44:28;36.55;29.92;39.70;;
49732;Laerm;43666;51.442;6.778;2024-01-07T03:46:53;36.49;28.67;39.46;;
49732;Laerm;43666;51.442;6.778;2024-01-07T03:49:19;36.58;29.92;40.03;;
49732;Laerm;43666;51.442;6.778;2024-01-07T03:51:45;36.69;26.91;39.81;;
49732;Laerm;43666;51.442;6.778;2024-01-07T03:54:11;36.64;29.92;40.23;;
49732;Laerm;43666;51.442;6.778;2024-01-07T03:56:37;36.44;29.92;39.81;;
49732;Laerm;43666;51.442;6.778;2024-01-07T03:59:02;36.48;29.92;39.58;;
49732;Laerm;43666;51.442;6.778;2024-01-07T04:01:28;36.55;29.92;39.81;;
49732;Laerm;43666;51.442;6.778;2024-01-07T04:03:54;36.55;29.92;39.81;;
49732;Laerm;43666;51.442;6.778;2024-01-07T04:06:20;36.45;28.67;39.70;;
49732;Laerm;43666;51.442;6.778;2024-01-07T04:08:45;36.46;28.67;40.03;;
49732;Laerm;43666;51.442;6.778;2024-01-07T04:11:11;36.52;28.67;39.81;;
49732;Laerm;43666;51.442;6.778;2024-01-07T04:13:36;36.52;30.89;40.23;;
49732;Laerm;43666;51.442;6.778;2024-01-07T04:16:02;36.48;30.89;39.81;;
49732;Laerm;43666;51.442;6.778;2024-01-07T04:18:28;36.51;30.89;39.58;;
49732;Laerm;43666;51.442;6.778;2024-01-07T04:20:54;36.47;26.91;39.58;;
49732;Laerm;43666;51.442;6.778;2024-01-07T04:23:19;36.49;29.92;39.92;;
49732;Laerm;43666;51.442;6.778;2024-01-07T04:25:45;36.54;30.89;39.58;;
49732;Laerm;43666;51.442;6.778;2024-01-07T04:28:11;36.48;30.54;39.46;;
49732;Laerm;43666;51.442;6.778;2024-01-07T04:30:37;36.53;23.90;39.81;;
49732;Laerm;43666;51.442;6.778;2024-01-07T04:33:03;36.52;28.67;39.46;;
49732;Laerm;43666;51.442;6.778;2024-01-07T04:35:29;36.56;29.92;40.23;;
49732;Laerm;43666;51.442;6.778;2024-01-07T04:37:54;36.52;28.67;39.92;;
49732;Laerm;43666;51.442;6.778;2024-01-07T04:40:20;36.58;29.92;39.58;;
49732;Laerm;43666;51.442;6.778;2024-01-07T04:42:46;36.59;28.67;39.92;;
49732;Laerm;43666;51.442;6.778;2024-01-07T04:45:11;36.59;29.92;39.70;;
49732;Laerm;43666;51.442;6.778;2024-01-07T04:47:37;36.54;29.92;40.23;;
49732;Laerm;43666;51.442;6.778;2024-01-07T04:50:03;36.55;26.91;39.58;;
49732;Laerm;43666;51.442;6.778;2024-01-07T04:52:29;36.53;28.67;40.23;;
49732;Laerm;43666;51.442;6.778;2024-01-07T04:54:55;36.56;28.67;39.70;;
49732;Laerm;43666;51.442;6.778;2024-01-07T04:57:21;36.55;29.92;40.23;;
49732;Laerm;43666;51.442;6.778;2024-01-07T04:59:47;36.53;28.67;39.81;;
49732;Laerm;43666;51.442;6.778;2024-01-07T05:02:14;36.55;26.91;40.03;;
49732;Laerm;43666;51.442;6.778;2024-01-07T05:04:39;36.53;29.92;39.81;;
49732;Laerm;43666;51.442;6.778;2024-01-07T05:07:05;36.47;29.92;39.58;;
49732;Laerm;43666;51.442;6.778;2024-01-07T05:09:31;36.55;30.89;39.70;;
49732;Laerm;43666;51.442;6.778;2024-01-07T05:11:57;36.58;29.92;39.58;;
49732;Laerm;43666;51.442;6.778;2024-01-07T05:14:23;36.55;30.89;39.70;;
49732;Laerm;43666;51.442;6.778;2024-01-07T05:16:48;36.56;29.92;39.58;;
49732;Laerm;43666;51.442;6.778;2024-01-07T05:19:14;36.52;29.92;39.81;;
49732;Laerm;43666;51.442;6.778;2024-01-07T05:21:40;36.55;28.67;39.81;;
49732;Laerm;43666;51.442;6.778;2024-01-07T05:24:05;36.51;30.89;39.34;;
49732;Laerm;43666;51.442;6.778;2024-01-07T05:26:37;36.53;26.91;39.35;;
49732;Laerm;43666;51.442;6.778;2024-01-07T05:29:03;36.53;28.67;39.81;;
49732;Laerm;43666;51.442;6.778;2024-01-07T05:31:28;36.56;29.92;39.92;;
49732;Laerm;43666;51.442;6.778;2024-01-07T05:33:54;36.58;30.89;39.92;;
49732;Laerm;43666;51.442;6.778;2024-01-07T05:36:19;36.56;26.91;39.81;;
49732;Laerm;43666;51.442;6.778;2024-01-07T05:38:45;36.57;29.92;39.81;;
49732;Laerm;43666;51.442;6.778;2024-01-07T05:41:11;36.57;28.67;39.81;;
49732;Laerm;43666;51.442;6.778;2024-01-07T05:43:37;36.56;30.89;39.81;;
49732;Laerm;43666;51.442;6.778;2024-01-07T05:46:02;36.55;26.91;39.58;;
49732;Laerm;43666;51.442;6.778;2024-01-07T05:48:28;36.54;29.92;40.03;;
49732;Laerm;43666;51.442;6.778;2024-01-07T05:50:54;36.55;30.89;39.81;;
49732;Laerm;43666;51.442;6.778;2024-01-07T05:53:19;36.57;26.56;39.70;;
49732;Laerm;43666;51.442;6.778;2024-01-07T05:55:45;36.59;28.67;39.81;;
49732;Laerm;43666;51.442;6.778;2024-01-07T05:58:11;36.56;28.32;39.92;;
49732;Laerm;43666;51.442;6.778;2024-01-07T06:00:37;36.56;26.91;39.68;;
49732;Laerm;43666;51.442;6.778;2024-01-07T06:03:03;36.58;29.92;39.89;;
49732;Laerm;43666;51.442;6.778;2024-01-07T06:05:29;36.56;30.89;39.58;;
49732;Laerm;43666;51.442;6.778;2024-01-07T06:07:54;36.62;29.92;39.92;;
49732;Laerm;43666;51.442;6.778;2024-01-07T06:10:20;36.64;28.67;42.53;;
49732;Laerm;43666;51.442;6.778;2024-01-07T06:12:46;36.58;23.90;39.58;;
49732;Laerm;43666;51.442;6.778;2024-01-07T06:15:12;36.64;31.68;39.92;;
49732;Laerm;43666;51.442;6.778;2024-01-07T06:17:38;36.63;29.92;39.58;;
49732;Laerm;43666;51.442;6.778;2024-01-07T06:20:04;36.58;28.67;39.81;;
49732;Laerm;43666;51.442;6.778;2024-01-07T06:22:31;36.55;26.91;39.58;;
49732;Laerm;43666;51.442;6.778;2024-01-07T06:24:57;36.55;29.92;39.70;;
49732;Laerm;43666;51.442;6.778;2024-01-07T06:27:23;36.57;30.89;39.58;;
49732;Laerm;43666;51.442;6.778;2024-01-07T06:29:48;36.59;28.67;40.43;;
49732;Laerm;43666;51.442;6.778;2024-01-07T06:32:14;36.55;31.68;39.46;;
49732;Laerm;43666;51.442;6.778;2024-01-07T06:34:40;36.60;30.89;39.70;;
49732;Laerm;43666;51.442;6.778;2024-01-07T06:37:05;36.57;29.92;39.92;;
49732;Laerm;43666;51.442;6.778;2024-01-07T06:39:33;36.56;28.67;39.70;;
49732;Laerm;43666;51.442;6.778;2024-01-07T06:41:59;36.58;29.92;39.70;;
49732;Laerm;43666;51.442;6.778;2024-01-07T06:44:25;36.58;29.92;39.46;;
49732;Laerm;43666;51.442;6.778;2024-01-07T06:46:51;36.55;30.89;39.58;;
49732;Laerm;43666;51.442;6.778;2024-01-07T06:49:18;36.63;30.89;39.70;;
49732;Laerm;43666;51.442;6.778;2024-01-07T06:51:43;36.60;26.91;39.92;;
49732;Laerm;43666;51.442;6.778;2024-01-07T06:54:09;36.58;28.67;39.92;;
49732;Laerm;43666;51.442;6.778;2024-01-07T06:56:35;36.61;30.89;39.92;;
49732;Laerm;43666;51.442;6.778;2024-01-07T06:59:00;36.61;29.92;39.58;;
49732;Laerm;43666;51.442;6.778;2024-01-07T07:01:27;36.55;29.92;39.57;;
49732;Laerm;43666;51.442;6.778;2024-01-07T07:03:52;36.58;30.89;39.46;;
49732;Laerm;43666;51.442;6.778;2024-01-07T07:06:18;36.59;30.54;39.70;;
49732;Laerm;43666;51.442;6.778;2024-01-07T07:08:44;36.60;29.92;39.81;;
49732;Laerm;43666;51.442;6.778;2024-01-07T07:11:09;36.61;28.67;40.13;;
49732;Laerm;43666;51.442;6.778;2024-01-07T07:13:35;36.58;30.89;39.70;;
49732;Laerm;43666;51.442;6.778;2024-01-07T07:16:01;36.63;29.92;39.58;;
49732;Laerm;43666;51.442;6.778;2024-01-07T07:18:26;36.61;30.89;39.81;;
49732;Laerm;43666;51.442;6.778;2024-01-07T07:20:52;36.58;28.67;39.46;;
49732;Laerm;43666;51.442;6.778;2024-01-07T07:23:18;36.67;30.89;39.70;;
49732;Laerm;43666;51.442;6.778;2024-01-07T07:25:44;36.66;29.92;39.92;;
49732;Laerm;43666;51.442;6.778;2024-01-07T07:28:10;36.65;26.56;39.99;;
49732;Laerm;43666;51.442;6.778;2024-01-07T07:30:36;36.62;29.92;40.23;;
49732;Laerm;43666;51.442;6.778;2024-01-07T07:33:02;36.59;30.89;39.34;;
49732;Laerm;43666;51.442;6.778;2024-01-07T07:35:27;36.61;31.68;39.46;;
49732;Laerm;43666;51.442;6.778;2024-01-07T07:37:53;36.65;28.67;40.03;;
49732;Laerm;43666;51.442;6.778;2024-01-07T07:40:19;36.71;29.92;40.43;;
49732;Laerm;43666;51.442;6.778;2024-01-07T07:42:45;36.67;31.68;39.92;;
49732;Laerm;43666;51.442;6.778;2024-01-07T07:45:11;36.65;30.89;40.13;;
49732;Laerm;43666;51.442;6.778;2024-01-07T07:47:37;36.67;28.67;39.78;;
49732;Laerm;43666;51.442;6.778;2024-01-07T07:50:03;36.67;30.89;39.70;;
49732;Laerm;43666;51.442;6.778;2024-01-07T07:52:30;36.69;29.92;40.33;;
49732;Laerm;43666;51.442;6.778;2024-01-07T07:54:55;36.60;30.89;39.46;;
49732;Laerm;43666;51.442;6.778;2024-01-07T07:57:21;36.66;30.89;39.70;;
49732;Laerm;43666;51.442;6.778;2024-01-07T07:59:48;36.64;30.89;39.58;;
49732;Laerm;43666;51.442;6.778;2024-01-07T08:02:14;36.63;30.89;39.70;;
49732;Laerm;43666;51.442;6.778;2024-01-07T08:04:40;36.66;30.54;40.03;;
49732;Laerm;43666;51.442;6.778;2024-01-07T08:07:09;36.66;29.92;39.70;;
49732;Laerm;43666;51.442;6.778;2024-01-07T08:09:35;36.77;30.89;39.92;;
49732;Laerm;43666;51.442;6.778;2024-01-07T08:12:04;36.68;30.89;39.70;;
49732;Laerm;43666;51.442;6.778;2024-01-07T08:14:30;36.69;30.89;40.13;;
49732;Laerm;43666;51.442;6.778;2024-01-07T08:16:56;36.66;31.68;40.03;;
49732;Laerm;43666;51.442;6.778;2024-01-07T08:19:22;36.65;31.68;39.58;;
49732;Laerm;43666;51.442;6.778;2024-01-07T08:21:47;36.65;30.54;39.92;;
49732;Laerm;43666;51.442;6.778;2024-01-07T08:24:13;36.64;29.92;39.58;;
49732;Laerm;43666;51.442;6.778;2024-01-07T08:26:39;36.58;31.68;39.46;;
49732;Laerm;43666;51.442;6.778;2024-01-07T08:29:05;36.65;30.89;39.58;;
49732;Laerm;43666;51.442;6.778;2024-01-07T08:31:31;36.66;30.89;39.58;;
49732;Laerm;43666;51.442;6.778;2024-01-07T08:33:56;36.73;30.89;39.81;;
49732;Laerm;43666;51.442;6.778;2024-01-07T08:36:22;36.69;30.89;39.92;;
49732;Laerm;43666;51.442;6.778;2024-01-07T08:38:48;36.66;30.89;40.33;;
49732;Laerm;43666;51.442;6.778;2024-01-07T08:41:17;36.59;30.89;39.92;;
49732;Laerm;43666;51.442;6.778;2024-01-07T08:43:42;36.68;29.92;39.70;;
49732;Laerm;43666;51.442;6.778;2024-01-07T08:46:09;36.67;30.89;39.70;;
49732;Laerm;43666;51.442;6.778;2024-01-07T08:48:35;36.69;29.57;39.58;;
49732;Laerm;43666;51.442;6.778;2024-01-07T08:51:00;36.65;30.89;39.81;;
49732;Laerm;43666;51.442;6.778;2024-01-07T08:53:26;36.68;29.92;39.58;;
49732;Laerm;43666;51.442;6.778;2024-01-07T08:55:51;36.69;29.92;40.98;;
49732;Laerm;43666;51.442;6.778;2024-01-07T08:58:17;36.71;29.92;41.82;;
49732;Laerm;43666;51.442;6.778;2024-01-07T09:00:43;36.74;30.89;39.58;;
49732;Laerm;43666;51.442;6.778;2024-01-07T09:03:09;36.71;28.67;40.33;;
49732;Laerm;43666;51.442;6.778;2024-01-07T09:05:36;36.67;29.92;39.46;;
49732;Laerm;43666;51.442;6.778;2024-01-07T09:08:02;36.69;28.67;40.03;;
49732;Laerm;43666;51.442;6.778;2024-01-07T09:10:27;36.68;29.92;40.03;;
49732;Laerm;43666;51.442;6.778;2024-01-07T09:12:53;36.67;30.89;39.58;;
49732;Laerm;43666;51.442;6.778;2024-01-07T09:15:19;36.70;28.67;39.70;;
49732;Laerm;43666;51.442;6.778;2024-01-07T09:17:45;36.76;31.68;41.22;;
49732;Laerm;43666;51.442;6.778;2024-01-07T09:20:12;36.70;29.92;39.81;;
49732;Laerm;43666;51.442;6.778;2024-01-07T09:22:38;36.69;30.89;39.58;;
49732;Laerm;43666;51.442;6.778;2024-01-07T09:25:04;36.72;30.89;39.92;;
49732;Laerm;43666;51.442;6.778;2024-01-07T09:27:31;36.70;29.92;40.03;;
49732;Laerm;43666;51.442;6.778;2024-01-07T09:29:57;36.74;31.68;39.58;;
49732;Laerm;43666;51.442;6.778;2024-01-07T09:32:23;36.79;30.89;39.58;;
49732;Laerm;43666;51.442;6.778;2024-01-07T09:34:49;36.71;28.67;39.70;;
49732;Laerm;43666;51.442;6.778;2024-01-07T09:37:16;36.78;29.92;39.92;;
49732;Laerm;43666;51.442;6.778;2024-01-07T09:39:42;36.69;30.89;39.70;;
49732;Laerm;43666;51.442;6.778;2024-01-07T09:42:09;36.69;30.89;39.70;;
49732;Laerm;43666;51.442;6.778;2024-01-07T09:44:37;36.75;31.68;39.70;;
49732;Laerm;43666;51.442;6.778;2024-01-07T09:47:03;36.74;29.92;39.81;;
49732;Laerm;43666;51.442;6.778;2024-01-07T09:49:29;36.78;29.92;39.81;;
49732;Laerm;43666;51.442;6.778;2024-01-07T09:51:56;36.77;31.68;39.81;;
49732;Laerm;43666;51.442;6.778;2024-01-07T09:54:25;36.81;31.68;39.81;;
49732;Laerm;43666;51.442;6.778;2024-01-07T09:56:53;36.79;30.89;39.92;;
49732;Laerm;43666;51.442;6.778;2024-01-07T09:59:21;36.81;30.89;39.92;;
49732;Laerm;43666;51.442;6.778;2024-01-07T10:01:46;36.83;30.89;39.89;;
49732;Laerm;43666;51.442;6.778;2024-01-07T10:04:12;36.85;30.89;40.03;;
49732;Laerm;43666;51.442;6.778;2024-01-07T10:06:38;36.85;29.92;40.33;;
49732;Laerm;43666;51.442;6.778;2024-01-07T10:09:05;36.78;29.92;39.81;;
49732;Laerm;43666;51.442;6.778;2024-01-07T10:11:31;36.79;28.67;39.70;;
49732;Laerm;43666;51.442;6.778;2024-01-07T10:13:57;36.79;29.92;39.92;;
49732;Laerm;43666;51.442;6.778;2024-01-07T10:16:23;36.86;30.89;40.23;;
49732;Laerm;43666;51.442;6.778;2024-01-07T10:18:49;36.79;29.92;39.70;;
49732;Laerm;43666;51.442;6.778;2024-01-07T10:21:15;36.78;30.89;39.81;;
49732;Laerm;43666;51.442;6.778;2024-01-07T10:23:40;36.80;32.35;39.92;;
49732;Laerm;43666;51.442;6.778;2024-01-07T10:26:07;36.83;31.68;39.70;;
49732;Laerm;43666;51.442;6.778;2024-01-07T10:28:33;36.80;31.68;39.81;;
49732;Laerm;43666;51.442;6.778;2024-01-07T10:30:59;36.76;30.89;39.81;;
49732;Laerm;43666;51.442;6.778;2024-01-07T10:33:24;36.84;31.68;40.13;;
49732;Laerm;43666;51.442;6.778;2024-01-07T10:35:56;36.88;31.68;41.30;;
49732;Laerm;43666;51.442;6.778;2024-01-07T10:38:23;36.83;30.89;40.03;;
49732;Laerm;43666;51.442;6.778;2024-01-07T10:40:50;36.83;31.68;39.81;;
49732;Laerm;43666;51.442;6.778;2024-01-07T10:43:17;36.82;31.68;40.33;;
49732;Laerm;43666;51.442;6.778;2024-01-07T10:45:44;36.79;31.68;39.81;;
49732;Laerm;43666;51.442;6.778;2024-01-07T10:48:12;36.75;30.89;40.03;;
49732;Laerm;43666;51.442;6.778;2024-01-07T10:50:39;36.76;29.92;39.70;;
49732;Laerm;43666;51.442;6.778;2024-01-07T10:53:06;36.79;30.89;39.92;;
49732;Laerm;43666;51.442;6.778;2024-01-07T10:55:34;36.75;31.68;39.81;;
49732;Laerm;43666;51.442;6.778;2024-01-07T10:58:02;36.77;29.92;40.03;;
49732;Laerm;43666;51.442;6.778;2024-01-07T11:00:28;36.74;30.89;40.33;;
49732;Laerm;43666;51.442;6.778;2024-01-07T11:03:02;36.74;30.89;40.13;;
49732;Laerm;43666;51.442;6.778;2024-01-07T11:08:28;36.80;29.92;39.70;;
49732;Laerm;43666;51.442;6.778;2024-01-07T11:11:09;36.81;29.92;39.70;;
49732;Laerm;43666;51.442;6.778;2024-01-07T11:13:36;36.88;31.68;40.13;;
49732;Laerm;43666;51.442;6.778;2024-01-07T11:16:03;36.84;31.68;39.70;;
49732;Laerm;43666;51.442;6.778;2024-01-07T11:18:30;36.90;31.68;39.92;;
49732;Laerm;43666;51.442;6.778;2024-01-07T11:20:59;36.79;30.89;40.33;;
49732;Laerm;43666;51.442;6.778;2024-01-07T11:23:32;36.89;31.68;42.29;;
49732;Laerm;43666;51.442;6.778;2024-01-07T11:25:59;36.89;30.89;42.82;;
49732;Laerm;43666;51.442;6.778;2024-01-07T11:34:05;36.87;29.92;43.86;;
49732;Laerm;43666;51.442;6.778;2024-01-07T11:36:31;36.87;31.68;43.44;;
49732;Laerm;43666;51.442;6.778;2024-01-07T11:39:00;36.91;31.33;39.81;;
49732;Laerm;43666;51.442;6.778;2024-01-07T11:41:27;36.91;31.68;39.70;;
49732;Laerm;43666;51.442;6.778;2024-01-07T11:46:21;36.88;28.32;39.70;;
49732;Laerm;43666;51.442;6.778;2024-01-07T11:48:46;36.90;31.68;39.58;;
49732;Laerm;43666;51.442;6.778;2024-01-07T11:51:12;36.92;32.35;39.70;;
49732;Laerm;43666;51.442;6.778;2024-01-07T11:53:38;36.89;32.35;40.13;;
49732;Laerm;43666;51.442;6.778;2024-01-07T11:56:04;36.93;30.89;39.81;;
49732;Laerm;43666;51.442;6.778;2024-01-07T11:58:30;36.87;30.89;39.81;;
49732;Laerm;43666;51.442;6.778;2024-01-07T12:00:56;36.86;31.68;39.70;;
49732;Laerm;43666;51.442;6.778;2024-01-07T12:03:23;36.91;32.35;41.46;;
49732;Laerm;43666;51.442;6.778;2024-01-07T12:05:49;36.91;31.68;39.81;;
49732;Laerm;43666;51.442;6.778;2024-01-07T12:08:15;36.90;31.68;39.58;;
49732;Laerm;43666;51.442;6.778;2024-01-07T12:10:41;36.90;31.68;39.92;;
49732;Laerm;43666;51.442;6.778;2024-01-07T12:13:06;36.90;30.89;40.03;;
49732;Laerm;43666;51.442;6.778;2024-01-07T12:15:34;36.88;30.89;39.81;;
49732;Laerm;43666;51.442;6.778;2024-01-07T12:18:00;36.87;29.92;39.70;;
49732;Laerm;43666;51.442;6.778;2024-01-07T12:20:27;36.91;32.35;39.81;;
49732;Laerm;43666;51.442;6.778;2024-01-07T12:23:08;36.94;32.35;40.33;;
49732;Laerm;43666;51.442;6.778;2024-01-07T12:25:34;36.95;31.68;40.03;;
49732;Laerm;43666;51.442;6.778;2024-01-07T12:28:01;36.96;31.68;39.46;;
49732;Laerm;43666;51.442;6.778;2024-01-07T12:30:27;36.93;29.92;40.03;;
49732;Laerm;43666;51.442;6.778;2024-01-07T12:32:53;36.96;29.92;43.09;;
49732;Laerm;43666;51.442;6.778;2024-01-07T12:35:19;36.93;29.92;39.92;;
49732;Laerm;43666;51.442;6.778;2024-01-07T12:37:44;36.95;31.68;39.81;;
49732;Laerm;43666;51.442;6.778;2024-01-07T12:40:11;36.94;32.35;39.92;;
49732;Laerm;43666;51.442;6.778;2024-01-07T12:42:40;36.93;31.68;39.46;;
49732;Laerm;43666;51.442;6.778;2024-01-07T12:45:11;36.91;32.35;40.03;;
49732;Laerm;43666;51.442;6.778;2024-01-07T12:47:37;36.96;30.89;40.13;;
49732;Laerm;43666;51.442;6.778;2024-01-07T12:50:03;36.94;32.35;40.23;;
49732;Laerm;43666;51.442;6.778;2024-01-07T12:52:29;37.00;31.68;39.81;;
49732;Laerm;43666;51.442;6.778;2024-01-07T12:54:54;36.97;30.89;39.58;;
49732;Laerm;43666;51.442;6.778;2024-01-07T12:57:21;36.97;32.35;40.13;;
49732;Laerm;43666;51.442;6.778;2024-01-07T12:59:47;37.01;32.35;39.92;;
49732;Laerm;43666;51.442;6.778;2024-01-07T13:02:13;36.94;30.89;39.70;;
49732;Laerm;43666;51.442;6.778;2024-01-07T13:04:39;36.95;30.89;39.81;;
49732;Laerm;43666;51.442;6.778;2024-01-07T13:07:04;36.98;31.68;39.92;;
49732;Laerm;43666;51.442;6.778;2024-01-07T13:09:30;37.00;30.89;39.58;;
49732;Laerm;43666;51.442;6.778;2024-01-07T13:11:56;36.98;30.89;40.03;;
49732;Laerm;43666;51.442;6.778;2024-01-07T13:14:23;36.96;30.89;39.81;;
49732;Laerm;43666;51.442;6.778;2024-01-07T13:16:49;36.94;31.68;39.81;;
49732;Laerm;43666;51.442;6.778;2024-01-07T13:19:15;36.95;32.35;39.58;;
49732;Laerm;43666;51.442;6.778;2024-01-07T13:21:41;37.02;31.68;43.63;;
49732;Laerm;43666;51.442;6.778;2024-01-07T13:24:07;36.91;32.35;40.13;;
49732;Laerm;43666;51.442;6.778;2024-01-07T13:26:33;36.94;32.35;39.81;;
49732;Laerm;43666;51.442;6.778;2024-01-07T13:28:58;37.01;30.89;39.81;;
49732;Laerm;43666;51.442;6.778;2024-01-07T13:31:24;37.01;32.93;40.53;;
49732;Laerm;43666;51.442;6.778;2024-01-07T13:33:50;37.00;32.93;41.68;;
49732;Laerm;43666;51.442;6.778;2024-01-07T13:36:15;36.97;31.68;39.70;;
49732;Laerm;43666;51.442;6.778;2024-01-07T13:38:41;36.99;30.89;39.70;;
49732;Laerm;43666;51.442;6.778;2024-01-07T13:41:07;36.95;29.92;39.58;;
49732;Laerm;43666;51.442;6.778;2024-01-07T13:43:33;36.97;32.35;40.23;;
49732;Laerm;43666;51.442;6.778;2024-01-07T13:45:59;37.02;32.35;41.46;;
49732;Laerm;43666;51.442;6.778;2024-01-07T13:48:27;37.00;31.68;39.70;;